createdAt,value
2024-02-22T00:00:25.255Z,48.14
2024-02-22T00:01:25.228Z,50.42
2024-02-22T00:02:25.224Z,50.23
2024-02-22T00:03:25.200Z,50.00
2024-02-22T00:04:25.255Z,52.24
2024-02-22T00:05:25.372Z,48.28
2024-02-22T00:06:25.199Z,47.62
2024-02-22T00:07:25.167Z,47.45
2024-02-22T00:08:25.148Z,50.38
2024-02-22T00:09:25.130Z,53.11
2024-02-22T00:10:25.120Z,50.52
2024-02-22T00:11:25.210Z,47.93
2024-02-22T00:12:25.104Z,46.03
2024-02-22T00:13:25.116Z,51.64
2024-02-22T00:14:25.101Z,49.07
2024-02-22T00:15:25.083Z,51.48
2024-02-22T00:16:25.139Z,51.83
2024-02-22T00:17:25.127Z,49.17
2024-02-22T00:18:25.171Z,47.85
2024-02-22T00:19:25.200Z,54.05
2024-02-22T00:20:25.077Z,49.83
2024-02-22T00:21:25.025Z,48.82
2024-02-22T00:22:25.051Z,47.77
2024-02-22T00:23:25.027Z,46.61
2024-02-22T00:24:24.988Z,50.49
2024-02-22T00:25:24.971Z,50.42
2024-02-22T00:26:24.962Z,51.77
2024-02-22T00:27:24.972Z,51.13
2024-02-22T00:28:24.987Z,51.67
2024-02-22T00:29:24.946Z,52.78
2024-02-22T00:30:24.945Z,47.96
2024-02-22T00:31:24.955Z,48.03
2024-02-22T00:32:24.986Z,48.89
2024-02-22T00:33:24.919Z,51.20
2024-02-22T00:34:24.967Z,54.94
2024-02-22T00:35:24.962Z,49.08
2024-02-22T00:36:24.890Z,49.72
2024-02-22T00:37:24.864Z,50.60
2024-02-22T00:38:24.858Z,53.17
2024-02-22T00:39:24.892Z,51.66
2024-02-22T00:40:24.846Z,49.46
2024-02-22T00:41:24.869Z,52.57
2024-02-22T00:42:24.842Z,48.61
2024-02-22T00:43:24.832Z,50.88
2024-02-22T00:44:24.822Z,50.00
2024-02-22T00:45:24.803Z,47.85
2024-02-22T00:46:24.777Z,49.01
2024-02-22T00:47:24.860Z,51.64
2024-02-22T00:48:24.893Z,47.78
2024-02-22T00:49:24.844Z,48.64
2024-02-22T00:50:24.860Z,47.41
2024-02-22T00:51:24.774Z,47.88
2024-02-22T00:52:24.739Z,54.90
2024-02-22T00:53:24.735Z,49.44
2024-02-22T00:54:24.734Z,49.10
2024-02-22T00:55:24.718Z,49.51
2024-02-22T00:56:24.689Z,55.22
2024-02-22T00:57:24.659Z,51.62
2024-02-22T00:58:24.688Z,51.82
2024-02-22T00:59:24.682Z,52.50
2024-02-22T01:00:24.651Z,48.88
2024-02-22T01:01:24.700Z,48.23
2024-02-22T01:02:24.614Z,48.75
2024-02-22T01:03:24.652Z,47.73
2024-02-22T01:04:24.687Z,47.62
2024-02-22T01:05:24.763Z,50.61
2024-02-22T01:06:24.724Z,47.79
2024-02-22T01:07:24.586Z,47.08
2024-02-22T01:08:24.580Z,52.13
2024-02-22T01:09:24.556Z,51.80
2024-02-22T01:10:24.574Z,46.59
2024-02-22T01:11:24.603Z,52.74
2024-02-22T01:12:24.514Z,47.62
2024-02-22T01:13:24.520Z,50.09
2024-02-22T01:14:24.520Z,49.18
2024-02-22T01:15:24.511Z,46.64
2024-02-22T01:16:24.499Z,50.31
2024-02-22T01:17:24.498Z,47.20
2024-02-22T01:18:24.530Z,45.22
2024-02-22T01:19:24.516Z,45.65
2024-02-22T01:20:24.474Z,45.86
2024-02-22T01:21:24.436Z,46.98
2024-02-22T01:22:24.434Z,47.87
2024-02-22T01:23:24.424Z,48.90
2024-02-22T01:24:24.410Z,46.53
2024-02-22T01:25:24.418Z,50.35
2024-02-22T01:26:24.437Z,49.61
2024-02-22T01:27:24.395Z,51.07
2024-02-22T01:28:24.396Z,47.64
2024-02-22T01:29:24.355Z,46.24
2024-02-22T01:30:24.363Z,47.42
2024-02-22T01:31:24.399Z,47.22
2024-02-22T01:32:24.369Z,47.17
2024-02-22T01:33:24.459Z,48.94
2024-02-22T01:34:24.360Z,50.59
2024-02-22T01:35:24.414Z,46.28
2024-02-22T01:36:24.311Z,46.77
2024-02-22T01:37:24.300Z,48.72
2024-02-22T01:38:24.361Z,51.81
2024-02-22T01:39:24.305Z,48.12
2024-02-22T01:40:24.253Z,49.30
2024-02-22T01:41:26.028Z,54.00
2024-02-22T01:42:24.231Z,52.85
2024-02-22T01:43:24.261Z,51.79
2024-02-22T01:44:24.209Z,51.06
2024-02-22T01:45:24.202Z,51.67
2024-02-22T01:46:24.198Z,51.07
2024-02-22T01:47:24.203Z,51.08
2024-02-22T01:48:24.237Z,51.65
2024-02-22T01:49:24.156Z,53.67
2024-02-22T01:50:24.151Z,52.77
2024-02-22T01:51:24.148Z,50.30
2024-02-22T01:52:24.144Z,48.68
2024-02-22T01:53:24.118Z,48.20
2024-02-22T01:54:24.151Z,48.45
2024-02-22T01:55:24.109Z,50.75
2024-02-22T01:56:24.117Z,50.16
2024-02-22T01:57:24.078Z,52.12
2024-02-22T01:58:24.076Z,49.88
2024-02-22T01:59:24.098Z,53.77
2024-02-22T02:00:24.060Z,51.89
2024-02-22T02:01:24.063Z,51.18
2024-02-22T02:02:24.048Z,48.18
2024-02-22T02:03:24.033Z,48.06
2024-02-22T02:04:24.004Z,49.03
2024-02-22T02:05:24.103Z,48.58
2024-02-22T02:06:24.024Z,51.07
2024-02-22T02:07:24.018Z,53.53
2024-02-22T02:08:24.004Z,51.71
2024-02-22T02:09:23.954Z,51.28
2024-02-22T02:10:23.957Z,50.99
2024-02-22T02:11:24.046Z,50.91
2024-02-22T02:12:23.947Z,49.90
2024-02-22T02:13:23.930Z,51.93
2024-02-22T02:14:23.963Z,50.68
2024-02-22T02:15:23.891Z,50.47
2024-02-22T02:16:23.883Z,49.98
2024-02-22T02:17:23.904Z,51.78
2024-02-22T02:18:23.921Z,54.18
2024-02-22T02:19:23.955Z,50.75
2024-02-22T02:20:23.962Z,51.25
2024-02-22T02:21:23.845Z,50.65
2024-02-22T02:22:23.837Z,51.52
2024-02-22T02:23:23.823Z,55.56
2024-02-22T02:24:23.839Z,55.72
2024-02-22T02:25:23.859Z,52.65
2024-02-22T02:26:23.832Z,49.47
2024-02-22T02:27:23.783Z,51.00
2024-02-22T02:28:23.786Z,51.17
2024-02-22T02:29:23.816Z,50.49
2024-02-22T02:30:23.745Z,48.37
2024-02-22T02:31:23.801Z,48.90
2024-02-22T02:32:23.782Z,50.12
2024-02-22T02:33:23.809Z,52.69
2024-02-22T02:34:23.749Z,51.01
2024-02-22T02:35:23.780Z,47.79
2024-02-22T02:36:23.686Z,49.61
2024-02-22T02:37:23.671Z,47.51
2024-02-22T02:38:23.693Z,49.92
2024-02-22T02:39:23.672Z,48.86
2024-02-22T02:40:23.670Z,51.73
2024-02-22T02:41:23.691Z,48.16
2024-02-22T02:42:23.642Z,47.13
2024-02-22T02:43:23.621Z,47.36
2024-02-22T02:44:23.701Z,48.18
2024-02-22T02:45:23.612Z,48.09
2024-02-22T02:46:23.658Z,48.28
2024-02-22T02:47:23.599Z,53.82
2024-02-22T02:48:23.618Z,49.80
2024-02-22T02:49:23.557Z,52.18
2024-02-22T02:50:23.578Z,48.84
2024-02-22T02:51:23.548Z,51.11
2024-02-22T02:52:23.527Z,50.48
2024-02-22T02:53:23.671Z,49.49
2024-02-22T02:54:23.521Z,50.26
2024-02-22T02:55:23.528Z,48.78
2024-02-22T02:56:23.550Z,57.41
2024-02-22T02:57:23.528Z,49.56
2024-02-22T02:58:23.488Z,52.50
2024-02-22T02:59:23.554Z,47.81
2024-02-22T03:00:23.472Z,47.72
2024-02-22T03:01:23.525Z,49.73
2024-02-22T03:02:23.651Z,48.84
2024-02-22T03:03:23.426Z,50.43
2024-02-22T03:04:23.474Z,53.34
2024-02-22T03:05:23.516Z,47.82
2024-02-22T03:06:23.422Z,51.92
2024-02-22T03:07:23.368Z,50.98
2024-02-22T03:08:23.421Z,50.71
2024-02-22T03:09:23.344Z,53.87
2024-02-22T03:10:23.344Z,51.32
2024-02-22T03:11:23.411Z,53.06
2024-02-22T03:12:23.329Z,50.37
2024-02-22T03:13:23.340Z,52.91
2024-02-22T03:14:23.380Z,50.19
2024-02-22T03:15:23.306Z,47.69
2024-02-22T03:16:23.292Z,53.14
2024-02-22T03:17:23.327Z,47.59
2024-02-22T03:18:23.307Z,50.10
2024-02-22T03:19:23.261Z,51.78
2024-02-22T03:20:23.276Z,51.02
2024-02-22T03:21:23.262Z,48.97
2024-02-22T03:22:23.260Z,47.86
2024-02-22T03:23:23.240Z,52.07
2024-02-22T03:24:23.232Z,50.01
2024-02-22T03:25:23.242Z,51.52
2024-02-22T03:26:23.205Z,52.80
2024-02-22T03:27:23.190Z,52.17
2024-02-22T03:28:23.160Z,50.07
2024-02-22T03:29:23.318Z,48.50
2024-02-22T03:30:23.169Z,51.01
2024-02-22T03:31:23.140Z,51.70
2024-02-22T03:32:23.164Z,51.01
2024-02-22T03:33:23.128Z,53.07
2024-02-22T03:34:23.175Z,55.21
2024-02-22T03:35:23.138Z,54.55
2024-02-22T03:36:23.081Z,51.06
2024-02-22T03:37:23.069Z,47.50
2024-02-22T03:38:23.212Z,50.41
2024-02-22T03:39:23.055Z,49.48
2024-02-22T03:40:23.046Z,51.26
2024-02-22T03:41:23.022Z,49.64
2024-02-22T03:42:23.021Z,49.23
2024-02-22T03:43:23.032Z,51.81
2024-02-22T03:44:23.003Z,51.11
2024-02-22T03:45:23.066Z,54.36
2024-02-22T03:46:23.049Z,49.88
2024-02-22T03:47:23.020Z,48.60
2024-02-22T03:48:23.005Z,49.13
2024-02-22T03:49:22.998Z,54.06
2024-02-22T03:50:22.989Z,50.19
2024-02-22T03:51:22.926Z,53.49
2024-02-22T03:52:22.933Z,48.15
2024-02-22T03:53:22.995Z,50.03
2024-02-22T03:54:22.916Z,49.33
2024-02-22T03:55:22.877Z,50.36
2024-02-22T03:56:22.998Z,52.16
2024-02-22T03:57:22.876Z,51.83
2024-02-22T03:58:22.876Z,51.04
2024-02-22T03:59:22.885Z,53.37
2024-02-22T04:00:22.852Z,54.16
2024-02-22T04:01:22.881Z,53.17
2024-02-22T04:02:22.885Z,54.16
2024-02-22T04:03:22.825Z,53.57
2024-02-22T04:04:22.855Z,52.90
2024-02-22T04:05:22.843Z,52.98
2024-02-22T04:06:22.795Z,54.16
2024-02-22T04:07:22.781Z,57.90
2024-02-22T04:08:22.770Z,53.96
2024-02-22T04:09:22.764Z,56.31
2024-02-22T04:10:22.732Z,53.40
2024-02-22T04:11:22.826Z,53.89
2024-02-22T04:12:22.753Z,53.00
2024-02-22T04:13:22.702Z,54.38
2024-02-22T04:14:22.694Z,57.20
2024-02-22T04:15:22.691Z,56.18
2024-02-22T04:16:22.672Z,54.96
2024-02-22T04:17:22.700Z,55.33
2024-02-22T04:18:22.816Z,55.45
2024-02-22T04:19:22.733Z,57.93
2024-02-22T04:20:22.727Z,55.73
2024-02-22T04:21:22.631Z,58.34
2024-02-22T04:22:22.650Z,61.32
2024-02-22T04:23:22.667Z,52.62
2024-02-22T04:24:22.631Z,54.32
2024-02-22T04:25:22.625Z,53.69
2024-02-22T04:26:22.656Z,53.90
2024-02-22T04:27:22.576Z,56.08
2024-02-22T04:28:22.582Z,54.34
2024-02-22T04:29:22.697Z,58.32
2024-02-22T04:30:22.575Z,55.16
2024-02-22T04:31:22.542Z,55.65
2024-02-22T04:32:22.589Z,55.05
2024-02-22T04:33:22.553Z,55.75
2024-02-22T04:34:22.530Z,58.39
2024-02-22T04:35:22.580Z,54.69
2024-02-22T04:36:22.507Z,57.43
2024-02-22T04:37:22.470Z,56.13
2024-02-22T04:38:22.532Z,63.58
2024-02-22T04:39:22.470Z,57.09
2024-02-22T04:40:22.485Z,57.64
2024-02-22T04:41:22.544Z,56.01
2024-02-22T04:42:22.447Z,60.22
2024-02-22T04:43:22.409Z,57.96
2024-02-22T04:44:22.508Z,55.66
2024-02-22T04:45:22.415Z,62.92
2024-02-22T04:46:22.399Z,56.97
2024-02-22T04:47:22.422Z,57.47
2024-02-22T04:48:22.422Z,57.30
2024-02-22T04:49:22.477Z,57.82
2024-02-22T04:50:22.459Z,59.38
2024-02-22T04:51:22.380Z,61.07
2024-02-22T04:52:22.361Z,55.69
2024-02-22T04:53:22.386Z,55.08
2024-02-22T04:54:22.341Z,57.97
2024-02-22T04:55:22.331Z,59.44
2024-02-22T04:56:22.357Z,52.31
2024-02-22T04:57:22.322Z,62.51
2024-02-22T04:58:22.299Z,54.48
2024-02-22T04:59:22.374Z,54.54
2024-02-22T05:00:22.264Z,61.42
2024-02-22T05:01:22.313Z,55.76
2024-02-22T05:02:22.326Z,58.26
2024-02-22T05:03:22.264Z,60.08
2024-02-22T05:04:22.249Z,55.47
2024-02-22T05:05:22.476Z,59.46
2024-02-22T05:06:22.310Z,60.48
2024-02-22T05:07:22.208Z,55.79
2024-02-22T05:08:22.211Z,54.44
2024-02-22T05:09:22.205Z,56.27
2024-02-22T05:10:22.184Z,56.90
2024-02-22T05:11:22.280Z,55.60
2024-02-22T05:12:22.154Z,58.66
2024-02-22T05:13:22.136Z,58.16
2024-02-22T05:14:22.190Z,64.84
2024-02-22T05:15:22.108Z,58.53
2024-02-22T05:16:22.114Z,56.18
2024-02-22T05:17:22.150Z,54.01
2024-02-22T05:18:22.160Z,54.30
2024-02-22T05:19:22.130Z,60.14
2024-02-22T05:20:22.242Z,57.60
2024-02-22T05:21:22.126Z,57.89
2024-02-22T05:22:22.032Z,55.75
2024-02-22T05:23:22.108Z,58.35
2024-02-22T05:24:22.053Z,58.72
2024-02-22T05:25:22.044Z,55.30
2024-02-22T05:26:22.059Z,58.49
2024-02-22T05:27:22.021Z,57.10
2024-02-22T05:28:21.986Z,56.19
2024-02-22T05:29:22.036Z,57.01
2024-02-22T05:30:21.962Z,55.65
2024-02-22T05:31:21.965Z,57.37
2024-02-22T05:32:22.021Z,56.33
2024-02-22T05:33:22.014Z,58.06
2024-02-22T05:34:21.976Z,62.82
2024-02-22T05:35:21.978Z,56.00
2024-02-22T05:36:21.922Z,64.32
2024-02-22T05:37:21.922Z,58.12
2024-02-22T05:38:21.929Z,61.42
2024-02-22T05:39:21.941Z,63.67
2024-02-22T05:40:21.867Z,61.74
2024-02-22T05:41:21.888Z,58.82
2024-02-22T05:42:21.854Z,58.81
2024-02-22T05:43:21.973Z,67.83
2024-02-22T05:44:21.843Z,58.83
2024-02-22T05:45:22.820Z,58.11
2024-02-22T05:46:21.813Z,67.03
2024-02-22T05:47:21.872Z,57.64
2024-02-22T05:48:21.903Z,58.13
2024-02-22T05:49:21.812Z,59.99
2024-02-22T05:50:21.797Z,58.92
2024-02-22T05:51:22.774Z,59.29
2024-02-22T05:52:21.730Z,66.27
2024-02-22T05:53:21.773Z,58.35
2024-02-22T05:54:21.719Z,59.28
2024-02-22T05:55:21.736Z,58.34
2024-02-22T05:56:21.777Z,63.12
2024-02-22T05:57:21.690Z,65.53
2024-02-22T05:58:21.697Z,58.58
2024-02-22T05:59:21.733Z,58.70
2024-02-22T06:00:21.658Z,58.70
2024-02-22T06:01:21.733Z,64.57
2024-02-22T06:02:21.719Z,57.77
2024-02-22T06:03:21.685Z,57.23
2024-02-22T06:04:21.682Z,63.63
2024-02-22T06:05:21.695Z,58.45
2024-02-22T06:06:21.602Z,57.46
2024-02-22T06:07:21.642Z,64.57
2024-02-22T06:08:21.649Z,59.59
2024-02-22T06:09:21.548Z,58.61
2024-02-22T06:10:21.550Z,60.30
2024-02-22T06:11:21.653Z,60.02
2024-02-22T06:12:21.573Z,59.23
2024-02-22T06:13:21.595Z,58.39
2024-02-22T06:14:21.592Z,58.77
2024-02-22T06:15:21.490Z,60.02
2024-02-22T06:16:21.473Z,69.65
2024-02-22T06:17:21.507Z,61.52
2024-02-22T06:18:21.470Z,60.13
2024-02-22T06:19:21.483Z,62.13
2024-02-22T06:20:21.509Z,60.56
2024-02-22T06:21:21.437Z,59.78
2024-02-22T06:22:21.435Z,60.35
2024-02-22T06:23:21.502Z,65.77
2024-02-22T06:24:21.398Z,60.70
2024-02-22T06:25:21.389Z,60.38
2024-02-22T06:26:21.474Z,61.21
2024-02-22T06:27:21.389Z,59.44
2024-02-22T06:28:21.349Z,60.52
2024-02-22T06:29:21.368Z,60.10
2024-02-22T06:30:21.349Z,58.61
2024-02-22T06:31:21.331Z,59.74
2024-02-22T06:32:21.343Z,61.00
2024-02-22T06:33:21.381Z,61.12
2024-02-22T06:34:21.350Z,61.59
2024-02-22T06:35:21.323Z,59.62
2024-02-22T06:36:21.278Z,63.80
2024-02-22T06:37:21.855Z,60.19
2024-02-22T06:38:21.269Z,58.66
2024-02-22T06:39:21.292Z,60.83
2024-02-22T06:40:21.262Z,61.67
2024-02-22T06:41:21.274Z,60.36
2024-02-22T06:42:21.226Z,62.88
2024-02-22T06:43:21.208Z,60.77
2024-02-22T06:44:21.217Z,59.19
2024-02-22T06:45:21.187Z,69.34
2024-02-22T06:46:21.167Z,59.56
2024-02-22T06:47:21.217Z,57.81
2024-02-22T06:48:21.465Z,61.12
2024-02-22T06:49:21.207Z,65.71
2024-02-22T06:50:21.248Z,59.13
2024-02-22T06:51:21.218Z,59.29
2024-02-22T06:52:21.133Z,67.78
2024-02-22T06:53:21.183Z,60.15
2024-02-22T06:54:21.117Z,61.30
2024-02-22T06:55:21.116Z,63.12
2024-02-22T06:56:21.146Z,59.72
2024-02-22T06:57:21.150Z,57.93
2024-02-22T06:58:21.086Z,60.15
2024-02-22T06:59:21.095Z,58.02
2024-02-22T07:00:21.041Z,56.82
2024-02-22T07:01:21.060Z,58.60
2024-02-22T07:02:21.095Z,58.34
2024-02-22T07:03:21.044Z,65.33
2024-02-22T07:04:21.085Z,58.55
2024-02-22T07:05:20.997Z,57.47
2024-02-22T07:06:21.034Z,61.93
2024-02-22T07:07:21.006Z,63.77
2024-02-22T07:08:21.034Z,59.48
2024-02-22T07:09:20.972Z,59.05
2024-02-22T07:10:20.945Z,59.56
2024-02-22T07:11:20.980Z,58.66
2024-02-22T07:12:20.993Z,65.71
2024-02-22T07:13:20.911Z,62.14
2024-02-22T07:14:20.978Z,61.98
2024-02-22T07:15:20.933Z,62.99
2024-02-22T07:16:20.883Z,65.25
2024-02-22T07:17:22.961Z,61.79
2024-02-22T07:18:21.922Z,59.71
2024-02-22T07:19:20.960Z,64.35
2024-02-22T07:20:20.917Z,59.48
2024-02-22T07:21:20.832Z,57.61
2024-02-22T07:22:20.879Z,61.09
2024-02-22T07:23:20.857Z,59.77
2024-02-22T07:24:20.818Z,61.64
2024-02-22T07:25:20.787Z,57.88
2024-02-22T07:26:20.829Z,58.37
2024-02-22T07:27:20.780Z,59.81
2024-02-22T07:28:20.777Z,59.08
2024-02-22T07:29:20.774Z,59.64
2024-02-22T07:30:20.781Z,57.47
2024-02-22T07:31:20.725Z,56.01
2024-02-22T07:32:20.873Z,58.40
2024-02-22T07:33:20.762Z,57.73
2024-02-22T07:34:20.815Z,58.48
2024-02-22T07:35:20.721Z,59.99
2024-02-22T07:36:20.683Z,58.23
2024-02-22T07:37:20.691Z,64.76
2024-02-22T07:38:20.750Z,58.11
2024-02-22T07:39:20.653Z,66.58
2024-02-22T07:40:20.670Z,59.03
2024-02-22T07:41:20.750Z,60.15
2024-02-22T07:42:20.617Z,58.64
2024-02-22T07:43:20.602Z,57.42
2024-02-22T07:44:20.657Z,58.22
2024-02-22T07:45:20.598Z,57.04
2024-02-22T07:46:20.607Z,57.84
2024-02-22T07:47:20.601Z,58.80
2024-02-22T07:48:20.614Z,64.26
2024-02-22T07:49:21.544Z,57.90
2024-02-22T07:50:21.601Z,58.67
2024-02-22T07:51:20.560Z,57.58
2024-02-22T07:52:20.532Z,58.59
2024-02-22T07:53:20.549Z,59.26
2024-02-22T07:54:20.501Z,65.44
2024-02-22T07:55:20.517Z,59.98
2024-02-22T07:56:20.721Z,59.23
2024-02-22T07:57:20.478Z,59.18
2024-02-22T07:58:20.477Z,59.31
2024-02-22T07:59:20.558Z,65.68
2024-02-22T08:00:20.452Z,60.30
2024-02-22T08:01:20.472Z,59.03
2024-02-22T08:02:20.476Z,59.99
2024-02-22T08:03:20.402Z,57.19
2024-02-22T08:04:20.412Z,65.33
2024-02-22T08:05:20.466Z,65.20
2024-02-22T08:06:20.420Z,57.47
2024-02-22T08:07:20.418Z,60.35
2024-02-22T08:08:20.410Z,59.05
2024-02-22T08:09:20.341Z,63.56
2024-02-22T08:10:20.353Z,57.62
2024-02-22T08:11:20.444Z,57.93
2024-02-22T08:12:20.333Z,57.37
2024-02-22T08:13:20.320Z,58.39
2024-02-22T08:14:20.411Z,64.68
2024-02-22T08:15:20.290Z,56.73
2024-02-22T08:16:20.282Z,57.00
2024-02-22T08:17:20.356Z,65.97
2024-02-22T08:18:20.359Z,56.73
2024-02-22T08:19:20.340Z,58.64
2024-02-22T08:20:20.365Z,58.80
2024-02-22T08:21:20.234Z,61.23
2024-02-22T08:22:20.242Z,65.50
2024-02-22T08:23:20.283Z,57.92
2024-02-22T08:24:20.187Z,59.33
2024-02-22T08:25:20.189Z,59.48
2024-02-22T08:26:20.261Z,58.85
2024-02-22T08:27:20.187Z,56.18
2024-02-22T08:28:20.177Z,64.76
2024-02-22T08:29:20.251Z,59.56
2024-02-22T08:30:20.145Z,57.31
2024-02-22T08:31:20.118Z,59.04
2024-02-22T08:32:20.258Z,58.75
2024-02-22T08:33:20.164Z,58.27
2024-02-22T08:34:20.188Z,58.45
2024-02-22T08:35:20.172Z,58.45
2024-02-22T08:36:20.080Z,59.41
2024-02-22T08:37:20.065Z,60.01
2024-02-22T08:38:20.106Z,61.80
2024-02-22T08:39:20.066Z,61.44
2024-02-22T08:40:30.593Z,58.27
2024-02-22T08:41:20.037Z,58.64
2024-02-22T08:42:20.012Z,59.64
2024-02-22T08:43:20.010Z,60.27
2024-02-22T08:44:20.075Z,60.80
2024-02-22T08:45:19.975Z,58.80
2024-02-22T08:46:21.611Z,61.89
2024-02-22T08:47:20.047Z,59.44
2024-02-22T08:48:19.983Z,58.32
2024-02-22T08:49:19.986Z,59.77
2024-02-22T08:50:20.039Z,58.79
2024-02-22T08:51:19.912Z,57.50
2024-02-22T08:52:21.068Z,59.52
2024-02-22T08:53:20.913Z,59.48
2024-02-22T08:54:19.896Z,59.70
2024-02-22T08:55:19.938Z,56.94
2024-02-22T08:56:19.924Z,57.56
2024-02-22T08:57:19.883Z,64.73
2024-02-22T08:58:19.870Z,58.85
2024-02-22T08:59:19.920Z,56.13
2024-02-22T09:00:19.840Z,58.01
2024-02-22T09:01:19.882Z,65.28
2024-02-22T09:02:19.976Z,58.30
2024-02-22T09:03:19.846Z,60.74
2024-02-22T09:04:19.840Z,60.30
2024-02-22T09:05:19.788Z,57.43
2024-02-22T09:06:19.823Z,57.70
2024-02-22T09:07:19.822Z,55.19
2024-02-22T09:08:19.867Z,59.89
2024-02-22T09:09:19.734Z,58.83
2024-02-22T09:10:19.816Z,56.32
2024-02-22T09:11:19.784Z,58.80
2024-02-22T09:12:19.769Z,59.27
2024-02-22T09:13:19.706Z,59.38
2024-02-22T09:14:19.802Z,57.10
2024-02-22T09:15:19.731Z,60.36
2024-02-22T09:16:19.715Z,58.64
2024-02-22T09:17:19.744Z,57.30
2024-02-22T09:18:19.714Z,58.58
2024-02-22T09:19:19.694Z,59.67
2024-02-22T09:20:20.138Z,58.38
2024-02-22T09:21:19.635Z,64.95
2024-02-22T09:22:19.608Z,57.64
2024-02-22T09:23:19.692Z,58.38
2024-02-22T09:24:19.590Z,59.51
2024-02-22T09:25:19.645Z,62.86
2024-02-22T09:26:19.596Z,64.60
2024-02-22T09:27:19.578Z,59.17
2024-02-22T09:28:19.606Z,59.39
2024-02-22T09:29:19.580Z,62.22
2024-02-22T09:30:19.542Z,66.21
2024-02-22T09:31:19.549Z,59.63
2024-02-22T09:32:19.768Z,60.05
2024-02-22T09:33:19.619Z,58.16
2024-02-22T09:34:19.604Z,64.27
2024-02-22T09:35:19.558Z,57.80
2024-02-22T09:36:19.489Z,59.86
2024-02-22T09:37:19.503Z,59.85
2024-02-22T09:38:19.534Z,59.22
2024-02-22T09:39:19.455Z,59.82
2024-02-22T09:40:19.447Z,59.42
2024-02-22T09:41:19.513Z,57.73
2024-02-22T09:42:19.424Z,56.25
2024-02-22T09:43:19.429Z,58.76
2024-02-22T09:44:19.520Z,58.14
2024-02-22T09:45:19.402Z,57.02
2024-02-22T09:46:19.389Z,61.05
2024-02-22T09:47:19.524Z,61.18
2024-02-22T09:48:19.465Z,57.67
2024-02-22T09:49:19.428Z,58.41
2024-02-22T09:50:19.389Z,57.23
2024-02-22T09:51:19.344Z,59.08
2024-02-22T09:52:19.322Z,59.38
2024-02-22T09:53:19.450Z,57.53
2024-02-22T09:54:19.414Z,62.17
2024-02-22T09:55:19.285Z,57.44
2024-02-22T09:56:19.350Z,57.17
2024-02-22T09:57:19.317Z,59.42
2024-02-22T09:58:19.258Z,57.28
2024-02-22T09:59:19.389Z,56.83
2024-02-22T10:00:20.275Z,59.56
2024-02-22T10:01:19.280Z,57.18
2024-02-22T10:02:19.542Z,64.28
2024-02-22T10:03:19.303Z,57.68
2024-02-22T10:04:19.226Z,58.63
2024-02-22T10:05:19.306Z,57.44
2024-02-22T10:06:19.224Z,59.05
2024-02-22T10:07:19.182Z,67.16
2024-02-22T10:08:19.269Z,58.85
2024-02-22T10:09:19.150Z,60.62
2024-02-22T10:10:19.161Z,59.05
2024-02-22T10:11:19.263Z,56.94
2024-02-22T10:12:19.687Z,56.10
2024-02-22T10:13:19.348Z,59.58
2024-02-22T10:14:19.221Z,57.83
2024-02-22T10:15:19.191Z,59.71
2024-02-22T10:16:19.154Z,58.56
2024-02-22T10:17:19.216Z,56.55
2024-02-22T10:18:19.110Z,59.78
2024-02-22T10:19:19.205Z,57.37
2024-02-22T10:20:19.050Z,62.27
2024-02-22T10:21:19.062Z,59.48
2024-02-22T10:22:19.015Z,57.59
2024-02-22T10:23:19.235Z,58.14
2024-02-22T10:24:19.027Z,58.44
2024-02-22T10:25:18.981Z,61.84
2024-02-22T10:26:19.020Z,59.02
2024-02-22T10:27:18.960Z,59.50
2024-02-22T10:28:18.947Z,60.14
2024-02-22T10:29:19.103Z,58.19
2024-02-22T10:30:18.953Z,58.71
2024-02-22T10:31:18.906Z,58.27
2024-02-22T10:32:18.962Z,57.12
2024-02-22T10:33:18.997Z,58.02
2024-02-22T10:34:18.976Z,57.95
2024-02-22T10:35:18.903Z,59.10
2024-02-22T10:36:18.891Z,65.31
2024-02-22T10:37:18.853Z,59.32
2024-02-22T10:38:18.997Z,58.08
2024-02-22T10:39:18.882Z,59.52
2024-02-22T10:40:18.855Z,66.45
2024-02-22T10:41:19.059Z,57.23
2024-02-22T10:42:18.831Z,57.91
2024-02-22T10:43:18.835Z,56.17
2024-02-22T10:44:18.902Z,66.40
2024-02-22T10:45:18.789Z,58.34
2024-02-22T10:46:18.770Z,58.92
2024-02-22T10:47:18.791Z,63.88
2024-02-22T10:48:18.935Z,60.57
2024-02-22T10:49:18.763Z,61.92
2024-02-22T10:50:18.798Z,58.83
2024-02-22T10:51:18.711Z,61.88
2024-02-22T10:52:18.711Z,60.58
2024-02-22T10:53:18.948Z,64.81
2024-02-22T10:54:18.697Z,56.69
2024-02-22T10:55:18.711Z,58.19
2024-02-22T10:56:18.735Z,66.88
2024-02-22T10:57:18.722Z,62.84
2024-02-22T10:58:18.684Z,62.37
2024-02-22T10:59:18.686Z,57.74
2024-02-22T11:00:18.627Z,57.24
2024-02-22T11:01:18.713Z,57.89
2024-02-22T11:02:18.741Z,62.91
2024-02-22T11:03:18.630Z,62.34
2024-02-22T11:04:18.684Z,58.23
2024-02-22T11:05:18.651Z,63.10
2024-02-22T11:06:18.645Z,61.93
2024-02-22T11:07:18.567Z,62.54
2024-02-22T11:08:18.655Z,60.53
2024-02-22T11:09:18.579Z,60.15
2024-02-22T11:10:18.538Z,59.98
2024-02-22T11:11:18.612Z,58.81
2024-02-22T11:12:18.592Z,58.46
2024-02-22T11:13:18.524Z,60.11
2024-02-22T11:14:19.590Z,59.31
2024-02-22T11:15:18.568Z,60.48
2024-02-22T11:16:18.493Z,62.80
2024-02-22T11:17:18.584Z,57.31
2024-02-22T11:18:18.522Z,59.08
2024-02-22T11:19:18.558Z,62.90
2024-02-22T11:20:18.630Z,57.09
2024-02-22T11:21:18.462Z,58.93
2024-02-22T11:22:20.860Z,65.46
2024-02-22T11:23:19.608Z,63.46
2024-02-22T11:24:18.470Z,60.04
2024-02-22T11:25:18.400Z,59.34
2024-02-22T11:26:18.396Z,60.65
2024-02-22T11:27:18.396Z,58.77
2024-02-22T11:28:18.392Z,59.87
2024-02-22T11:29:18.423Z,65.49
2024-02-22T11:30:18.381Z,57.90
2024-02-22T11:31:18.358Z,57.64
2024-02-22T11:32:22.260Z,59.17
2024-02-22T11:33:19.419Z,70.27
2024-02-22T11:34:18.339Z,58.37
2024-02-22T11:35:18.356Z,58.72
2024-02-22T11:36:18.309Z,60.49
2024-02-22T11:37:18.452Z,59.47
2024-02-22T11:38:18.352Z,60.46
2024-02-22T11:39:18.268Z,58.70
2024-02-22T11:40:18.274Z,58.53
2024-02-22T11:41:18.333Z,63.90
2024-02-22T11:42:18.214Z,60.19
2024-02-22T11:43:18.236Z,58.49
2024-02-22T11:44:18.285Z,67.69
2024-02-22T11:45:18.186Z,59.33
2024-02-22T11:46:18.197Z,60.42
2024-02-22T11:47:18.186Z,65.47
2024-02-22T11:48:18.279Z,61.83
2024-02-22T11:49:18.186Z,59.63
2024-02-22T11:50:18.212Z,59.50
2024-02-22T11:51:18.139Z,59.94
2024-02-22T11:52:18.126Z,66.58
2024-02-22T11:53:18.211Z,59.38
2024-02-22T11:54:18.109Z,58.00
2024-02-22T11:55:18.092Z,57.12
2024-02-22T11:56:18.145Z,57.47
2024-02-22T11:57:18.071Z,57.73
2024-02-22T11:58:18.059Z,58.43
2024-02-22T11:59:18.111Z,64.41
2024-02-22T12:00:18.066Z,59.95
2024-02-22T12:01:18.036Z,58.10
2024-02-22T12:02:19.035Z,61.75
2024-02-22T12:03:18.006Z,60.41
2024-02-22T12:04:18.016Z,61.37
2024-02-22T12:05:18.028Z,60.53
2024-02-22T12:06:18.061Z,65.37
2024-02-22T12:07:18.063Z,59.12
2024-02-22T12:08:18.022Z,58.57
2024-02-22T12:09:17.958Z,62.80
2024-02-22T12:10:17.939Z,65.94
2024-02-22T12:11:17.975Z,59.52
2024-02-22T12:12:17.996Z,58.82
2024-02-22T12:13:17.891Z,68.83
2024-02-22T12:14:18.023Z,61.18
2024-02-22T12:15:20.679Z,58.23
2024-02-22T12:16:18.957Z,59.87
2024-02-22T12:17:17.892Z,59.63
2024-02-22T12:18:17.987Z,60.20
2024-02-22T12:19:18.026Z,59.08
2024-02-22T12:20:17.930Z,59.26
2024-02-22T12:21:20.781Z,68.63
2024-02-22T12:22:17.813Z,66.75
2024-02-22T12:23:17.928Z,57.64
2024-02-22T12:24:17.827Z,58.91
2024-02-22T12:25:17.785Z,57.47
2024-02-22T12:26:17.826Z,59.83
2024-02-22T12:27:20.812Z,66.41
2024-02-22T12:28:18.781Z,58.53
2024-02-22T12:29:17.884Z,60.53
2024-02-22T12:30:17.751Z,65.53
2024-02-22T12:31:17.712Z,59.65
2024-02-22T12:32:17.841Z,57.10
2024-02-22T12:33:21.059Z,58.87
2024-02-22T12:34:17.868Z,57.64
2024-02-22T12:35:17.771Z,58.22
2024-02-22T12:36:17.745Z,58.67
2024-02-22T12:37:17.658Z,61.28
2024-02-22T12:38:17.736Z,61.84
2024-02-22T12:39:17.663Z,57.64
2024-02-22T12:40:17.735Z,58.48
2024-02-22T12:41:17.806Z,58.82
2024-02-22T12:42:17.656Z,57.77
2024-02-22T12:43:23.018Z,59.09
2024-02-22T12:44:19.677Z,58.38
2024-02-22T12:45:20.968Z,57.26
2024-02-22T12:46:18.600Z,58.76
2024-02-22T12:47:17.690Z,58.05
2024-02-22T12:48:17.810Z,57.16
2024-02-22T12:49:17.592Z,59.46
2024-02-22T12:50:17.596Z,57.76
2024-02-22T12:51:20.586Z,59.37
2024-02-22T12:52:18.552Z,61.22